sensor_id;sensor_type;location;lat;lon;timestamp;temperature;humidity
65568;DHT22;52211;50.154;8.682;2023-12-20T08:39:14;5.60;85.10
65568;DHT22;52211;50.154;8.682;2023-12-20T08:41:44;5.70;85.90
65568;DHT22;52211;50.154;8.682;2023-12-20T08:44:13;5.90;85.60
65568;DHT22;52211;50.154;8.682;2023-12-20T08:46:43;6.20;85.20
65568;DHT22;52211;50.154;8.682;2023-12-20T08:49:12;6.40;84.70
65568;DHT22;52211;50.154;8.682;2023-12-20T08:51:42;6.60;84.50
65568;DHT22;52211;50.154;8.682;2023-12-20T08:59:52;7.00;83.30
65568;DHT22;52211;50.154;8.682;2023-12-20T09:02:21;6.90;83.70
65568;DHT22;52211;50.154;8.682;2023-12-20T09:04:50;7.00;83.80
65568;DHT22;52211;50.154;8.682;2023-12-20T09:07:26;7.10;83.80
65568;DHT22;52211;50.154;8.682;2023-12-20T09:09:54;7.20;83.40
65568;DHT22;52211;50.154;8.682;2023-12-20T09:12:21;7.30;83.50
65568;DHT22;52211;50.154;8.682;2023-12-20T09:14:51;7.40;83.30
65568;DHT22;52211;50.154;8.682;2023-12-20T09:17:23;7.50;83.10
65568;DHT22;52211;50.154;8.682;2023-12-20T09:19:53;7.60;83.10
65568;DHT22;52211;50.154;8.682;2023-12-20T09:22:21;7.60;82.90
65568;DHT22;52211;50.154;8.682;2023-12-20T09:24:50;7.80;83.00
65568;DHT22;52211;50.154;8.682;2023-12-20T09:27:19;7.80;83.00
65568;DHT22;52211;50.154;8.682;2023-12-20T09:29:47;7.90;82.70
65568;DHT22;52211;50.154;8.682;2023-12-20T09:32:17;7.90;82.60
65568;DHT22;52211;50.154;8.682;2023-12-20T09:34:47;8.00;82.40
65568;DHT22;52211;50.154;8.682;2023-12-20T09:37:17;8.00;82.40
65568;DHT22;52211;50.154;8.682;2023-12-20T09:39:46;8.10;82.50
65568;DHT22;52211;50.154;8.682;2023-12-20T09:42:17;8.20;82.10
65568;DHT22;52211;50.154;8.682;2023-12-20T09:45:02;8.20;81.70
65568;DHT22;52211;50.154;8.682;2023-12-20T09:47:35;8.20;82.10
65568;DHT22;52211;50.154;8.682;2023-12-20T09:50:02;8.20;81.80
65568;DHT22;52211;50.154;8.682;2023-12-20T09:52:36;8.30;81.80
65568;DHT22;52211;50.154;8.682;2023-12-20T09:55:06;8.30;81.30
65568;DHT22;52211;50.154;8.682;2023-12-20T09:57:34;8.30;81.40
65568;DHT22;52211;50.154;8.682;2023-12-20T10:00:01;8.30;81.50
65568;DHT22;52211;50.154;8.682;2023-12-20T10:02:39;8.40;81.40
65568;DHT22;52211;50.154;8.682;2023-12-20T10:05:16;8.40;81.40
65568;DHT22;52211;50.154;8.682;2023-12-20T10:07:47;8.40;81.20
65568;DHT22;52211;50.154;8.682;2023-12-20T10:10:15;8.40;81.40
65568;DHT22;52211;50.154;8.682;2023-12-20T10:15:33;8.50;81.00
65568;DHT22;52211;50.154;8.682;2023-12-20T10:18:01;8.50;81.30
65568;DHT22;52211;50.154;8.682;2023-12-20T10:20:31;8.50;81.20
65568;DHT22;52211;50.154;8.682;2023-12-20T10:22:59;8.50;81.30
65568;DHT22;52211;50.154;8.682;2023-12-20T10:25:28;8.60;81.20
65568;DHT22;52211;50.154;8.682;2023-12-20T10:30:41;8.60;80.70
65568;DHT22;52211;50.154;8.682;2023-12-20T10:33:09;8.60;81.00
65568;DHT22;52211;50.154;8.682;2023-12-20T10:35:40;8.70;81.10
65568;DHT22;52211;50.154;8.682;2023-12-20T10:38:12;8.70;80.90
65568;DHT22;52211;50.154;8.682;2023-12-20T10:40:45;8.70;80.90
65568;DHT22;52211;50.154;8.682;2023-12-20T10:43:15;8.70;81.30
65568;DHT22;52211;50.154;8.682;2023-12-20T10:45:47;8.70;80.80
65568;DHT22;52211;50.154;8.682;2023-12-20T10:48:17;8.70;80.80
65568;DHT22;52211;50.154;8.682;2023-12-20T10:50:45;8.80;80.70
65568;DHT22;52211;50.154;8.682;2023-12-20T10:53:13;8.80;80.70
65568;DHT22;52211;50.154;8.682;2023-12-20T10:55:44;8.80;80.60
65568;DHT22;52211;50.154;8.682;2023-12-20T10:58:14;8.80;80.60
65568;DHT22;52211;50.154;8.682;2023-12-20T11:00:43;8.90;80.60
65568;DHT22;52211;50.154;8.682;2023-12-20T11:03:13;8.90;80.50
65568;DHT22;52211;50.154;8.682;2023-12-20T11:06:00;8.90;80.30
65568;DHT22;52211;50.154;8.682;2023-12-20T11:09:04;8.90;80.00
65568;DHT22;52211;50.154;8.682;2023-12-20T11:12:01;8.90;79.80
65568;DHT22;52211;50.154;8.682;2023-12-20T11:17:14;9.00;80.10
65568;DHT22;52211;50.154;8.682;2023-12-20T11:22:23;9.10;79.90
65568;DHT22;52211;50.154;8.682;2023-12-20T11:24:52;9.20;80.20
65568;DHT22;52211;50.154;8.682;2023-12-20T11:27:27;9.20;80.30
65568;DHT22;52211;50.154;8.682;2023-12-20T11:29:58;9.30;80.20
65568;DHT22;52211;50.154;8.682;2023-12-20T11:35:27;9.40;80.30
65568;DHT22;52211;50.154;8.682;2023-12-20T11:37:51;9.40;80.00
65568;DHT22;52211;50.154;8.682;2023-12-20T11:40:18;9.50;79.90
65568;DHT22;52211;50.154;8.682;2023-12-20T11:42:49;9.60;79.70
65568;DHT22;52211;50.154;8.682;2023-12-20T11:45:19;9.60;79.50
65568;DHT22;52211;50.154;8.682;2023-12-20T11:47:53;9.70;79.30
65568;DHT22;52211;50.154;8.682;2023-12-20T11:50:27;9.80;79.30
65568;DHT22;52211;50.154;8.682;2023-12-20T11:52:55;9.80;79.10
65568;DHT22;52211;50.154;8.682;2023-12-20T11:55:24;9.80;78.80
65568;DHT22;52211;50.154;8.682;2023-12-20T11:57:54;9.90;78.90
65568;DHT22;52211;50.154;8.682;2023-12-20T12:00:23;9.90;78.30
65568;DHT22;52211;50.154;8.682;2023-12-20T12:02:58;9.90;78.40
65568;DHT22;52211;50.154;8.682;2023-12-20T12:05:31;9.90;78.00
65568;DHT22;52211;50.154;8.682;2023-12-20T12:07:59;9.90;78.00
65568;DHT22;52211;50.154;8.682;2023-12-20T12:10:26;10.00;78.00
65568;DHT22;52211;50.154;8.682;2023-12-20T12:12:55;10.00;77.90
65568;DHT22;52211;50.154;8.682;2023-12-20T12:15:25;10.00;77.80
65568;DHT22;52211;50.154;8.682;2023-12-20T12:17:57;10.00;77.70
65568;DHT22;52211;50.154;8.682;2023-12-20T12:20:27;10.10;77.70
65568;DHT22;52211;50.154;8.682;2023-12-20T12:23:08;10.20;77.50
65568;DHT22;52211;50.154;8.682;2023-12-20T12:25:37;10.20;77.00
65568;DHT22;52211;50.154;8.682;2023-12-20T12:28:09;10.30;77.60
65568;DHT22;52211;50.154;8.682;2023-12-20T12:30:39;10.30;77.50
65568;DHT22;52211;50.154;8.682;2023-12-20T12:33:21;10.50;77.10
65568;DHT22;52211;50.154;8.682;2023-12-20T12:35:48;10.70;77.40
65568;DHT22;52211;50.154;8.682;2023-12-20T12:38:23;10.90;77.30
65568;DHT22;52211;50.154;8.682;2023-12-20T12:40:54;11.10;77.10
65568;DHT22;52211;50.154;8.682;2023-12-20T12:43:23;11.40;77.60
65568;DHT22;52211;50.154;8.682;2023-12-20T12:45:53;11.80;77.80
65568;DHT22;52211;50.154;8.682;2023-12-20T12:48:23;12.10;77.50
65568;DHT22;52211;50.154;8.682;2023-12-20T12:50:52;12.30;77.10
65568;DHT22;52211;50.154;8.682;2023-12-20T12:53:21;12.60;77.00
65568;DHT22;52211;50.154;8.682;2023-12-20T12:55:47;12.80;76.20
65568;DHT22;52211;50.154;8.682;2023-12-20T12:58:17;13.00;74.70
65568;DHT22;52211;50.154;8.682;2023-12-20T13:00:46;13.30;74.60
65568;DHT22;52211;50.154;8.682;2023-12-20T13:03:15;13.50;74.40
65568;DHT22;52211;50.154;8.682;2023-12-20T13:05:42;13.70;73.80
65568;DHT22;52211;50.154;8.682;2023-12-20T13:08:13;13.70;73.20
65568;DHT22;52211;50.154;8.682;2023-12-20T13:10:43;13.60;72.30
65568;DHT22;52211;50.154;8.682;2023-12-20T13:13:15;13.60;72.10
65568;DHT22;52211;50.154;8.682;2023-12-20T13:15:48;13.40;71.50
65568;DHT22;52211;50.154;8.682;2023-12-20T13:18:22;13.30;71.40
65568;DHT22;52211;50.154;8.682;2023-12-20T13:20:49;13.10;71.50
65568;DHT22;52211;50.154;8.682;2023-12-20T13:23:19;12.90;70.90
65568;DHT22;52211;50.154;8.682;2023-12-20T13:25:46;12.70;70.70
65568;DHT22;52211;50.154;8.682;2023-12-20T13:28:13;12.50;71.20
65568;DHT22;52211;50.154;8.682;2023-12-20T13:30:40;12.30;71.20
65568;DHT22;52211;50.154;8.682;2023-12-20T13:33:08;12.10;71.30
65568;DHT22;52211;50.154;8.682;2023-12-20T13:35:35;12.00;71.40
65568;DHT22;52211;50.154;8.682;2023-12-20T13:38:06;11.90;71.50
65568;DHT22;52211;50.154;8.682;2023-12-20T13:40:36;11.70;71.70
65568;DHT22;52211;50.154;8.682;2023-12-20T13:43:06;11.60;71.70
65568;DHT22;52211;50.154;8.682;2023-12-20T13:45:35;11.50;71.60
65568;DHT22;52211;50.154;8.682;2023-12-20T13:48:04;11.40;71.70
65568;DHT22;52211;50.154;8.682;2023-12-20T13:50:31;11.30;71.70
65568;DHT22;52211;50.154;8.682;2023-12-20T13:53:03;11.20;71.70
65568;DHT22;52211;50.154;8.682;2023-12-20T13:55:33;11.10;71.80
65568;DHT22;52211;50.154;8.682;2023-12-20T13:58:03;11.10;71.90
65568;DHT22;52211;50.154;8.682;2023-12-20T14:00:37;10.90;71.90
65568;DHT22;52211;50.154;8.682;2023-12-20T14:03:04;10.90;72.30
65568;DHT22;52211;50.154;8.682;2023-12-20T14:05:34;10.80;71.90
65568;DHT22;52211;50.154;8.682;2023-12-20T14:08:04;10.80;72.00
65568;DHT22;52211;50.154;8.682;2023-12-20T14:10:36;10.70;72.10
65568;DHT22;52211;50.154;8.682;2023-12-20T14:13:05;10.60;72.10
65568;DHT22;52211;50.154;8.682;2023-12-20T14:15:34;10.60;72.00
65568;DHT22;52211;50.154;8.682;2023-12-20T14:18:09;10.50;72.00
65568;DHT22;52211;50.154;8.682;2023-12-20T14:20:36;10.50;71.90
65568;DHT22;52211;50.154;8.682;2023-12-20T14:23:06;10.50;72.30
65568;DHT22;52211;50.154;8.682;2023-12-20T14:25:33;10.50;72.20
65568;DHT22;52211;50.154;8.682;2023-12-20T14:28:17;10.40;72.20
65568;DHT22;52211;50.154;8.682;2023-12-20T14:30:44;10.40;71.90
65568;DHT22;52211;50.154;8.682;2023-12-20T14:33:16;10.40;72.00
65568;DHT22;52211;50.154;8.682;2023-12-20T14:35:48;10.40;72.00
65568;DHT22;52211;50.154;8.682;2023-12-20T14:38:15;10.40;72.20
65568;DHT22;52211;50.154;8.682;2023-12-20T14:40:42;10.40;72.30
65568;DHT22;52211;50.154;8.682;2023-12-20T14:43:11;10.30;72.20
65568;DHT22;52211;50.154;8.682;2023-12-20T14:45:40;10.40;72.10
65568;DHT22;52211;50.154;8.682;2023-12-20T14:48:12;10.30;72.10
65568;DHT22;52211;50.154;8.682;2023-12-20T14:50:43;10.30;72.10
65568;DHT22;52211;50.154;8.682;2023-12-20T14:53:15;10.30;72.20
65568;DHT22;52211;50.154;8.682;2023-12-20T14:55:50;10.20;72.20
65568;DHT22;52211;50.154;8.682;2023-12-20T14:58:22;10.20;72.10
65568;DHT22;52211;50.154;8.682;2023-12-20T15:00:52;10.20;71.90
65568;DHT22;52211;50.154;8.682;2023-12-20T15:03:22;10.20;72.20
65568;DHT22;52211;50.154;8.682;2023-12-20T15:05:54;10.20;72.00
65568;DHT22;52211;50.154;8.682;2023-12-20T15:08:23;10.20;72.10
65568;DHT22;52211;50.154;8.682;2023-12-20T15:10:52;10.20;72.00
65568;DHT22;52211;50.154;8.682;2023-12-20T15:13:24;10.20;72.10
65568;DHT22;52211;50.154;8.682;2023-12-20T15:15:53;10.10;72.10
65568;DHT22;52211;50.154;8.682;2023-12-20T15:18:21;10.10;72.10
65568;DHT22;52211;50.154;8.682;2023-12-20T15:20:50;10.10;72.00
65568;DHT22;52211;50.154;8.682;2023-12-20T15:23:19;10.10;71.70
65568;DHT22;52211;50.154;8.682;2023-12-20T15:25:53;10.10;71.90
65568;DHT22;52211;50.154;8.682;2023-12-20T15:28:23;10.00;71.60
65568;DHT22;52211;50.154;8.682;2023-12-20T15:30:50;10.00;71.70
65568;DHT22;52211;50.154;8.682;2023-12-20T15:33:19;10.10;71.80
65568;DHT22;52211;50.154;8.682;2023-12-20T15:35:46;10.00;71.70
65568;DHT22;52211;50.154;8.682;2023-12-20T15:38:13;10.00;71.80
65568;DHT22;52211;50.154;8.682;2023-12-20T15:40:46;10.00;71.80
65568;DHT22;52211;50.154;8.682;2023-12-20T15:43:13;10.00;71.80
65568;DHT22;52211;50.154;8.682;2023-12-20T15:45:42;10.00;71.80
65568;DHT22;52211;50.154;8.682;2023-12-20T15:48:09;10.00;71.80
65568;DHT22;52211;50.154;8.682;2023-12-20T15:50:38;9.90;71.80
65568;DHT22;52211;50.154;8.682;2023-12-20T15:53:04;9.90;71.80
65568;DHT22;52211;50.154;8.682;2023-12-20T15:55:31;9.90;71.70
65568;DHT22;52211;50.154;8.682;2023-12-20T15:58:01;10.00;71.80
65568;DHT22;52211;50.154;8.682;2023-12-20T16:00:30;9.90;71.70
65568;DHT22;52211;50.154;8.682;2023-12-20T16:02:59;9.90;71.50
65568;DHT22;52211;50.154;8.682;2023-12-20T16:05:28;9.90;71.70
65568;DHT22;52211;50.154;8.682;2023-12-20T16:07:58;9.90;71.80
65568;DHT22;52211;50.154;8.682;2023-12-20T16:10:25;9.90;71.70
65568;DHT22;52211;50.154;8.682;2023-12-20T16:12:55;9.90;71.70
65568;DHT22;52211;50.154;8.682;2023-12-20T16:15:26;9.90;71.50
65568;DHT22;52211;50.154;8.682;2023-12-20T16:17:53;9.80;71.70
65568;DHT22;52211;50.154;8.682;2023-12-20T16:20:30;9.80;71.70
65568;DHT22;52211;50.154;8.682;2023-12-20T16:23:02;9.80;71.70
65568;DHT22;52211;50.154;8.682;2023-12-20T16:25:28;9.80;71.60
65568;DHT22;52211;50.154;8.682;2023-12-20T16:27:58;9.80;71.70
65568;DHT22;52211;50.154;8.682;2023-12-20T16:30:27;9.80;71.70
65568;DHT22;52211;50.154;8.682;2023-12-20T16:32:59;9.80;71.50
65568;DHT22;52211;50.154;8.682;2023-12-20T16:35:26;9.80;71.70
65568;DHT22;52211;50.154;8.682;2023-12-20T16:37:53;9.80;71.80
65568;DHT22;52211;50.154;8.682;2023-12-20T16:40:20;9.70;71.70
65568;DHT22;52211;50.154;8.682;2023-12-20T16:42:54;9.80;71.70
65568;DHT22;52211;50.154;8.682;2023-12-20T16:45:26;9.70;71.60
65568;DHT22;52211;50.154;8.682;2023-12-20T16:47:55;9.70;71.70
65568;DHT22;52211;50.154;8.682;2023-12-20T16:50:24;9.70;71.60
65568;DHT22;52211;50.154;8.682;2023-12-20T16:52:53;9.70;71.70
65568;DHT22;52211;50.154;8.682;2023-12-20T16:55:25;9.70;71.80
65568;DHT22;52211;50.154;8.682;2023-12-20T16:57:52;9.70;71.70
65568;DHT22;52211;50.154;8.682;2023-12-20T17:00:24;9.70;71.70
65568;DHT22;52211;50.154;8.682;2023-12-20T17:02:55;9.70;71.70
65568;DHT22;52211;50.154;8.682;2023-12-20T17:05:27;9.60;71.60
65568;DHT22;52211;50.154;8.682;2023-12-20T17:07:58;9.60;71.70
65568;DHT22;52211;50.154;8.682;2023-12-20T17:10:27;9.60;71.50
65568;DHT22;52211;50.154;8.682;2023-12-20T17:12:59;9.60;71.50
65568;DHT22;52211;50.154;8.682;2023-12-20T17:15:28;9.60;71.50
65568;DHT22;52211;50.154;8.682;2023-12-20T17:17:55;9.60;71.60
65568;DHT22;52211;50.154;8.682;2023-12-20T17:20:25;9.60;71.60
65568;DHT22;52211;50.154;8.682;2023-12-20T17:22:57;9.90;71.80
65568;DHT22;52211;50.154;8.682;2023-12-20T17:25:28;9.70;71.60
65568;DHT22;52211;50.154;8.682;2023-12-20T17:27:57;9.60;71.50
65568;DHT22;52211;50.154;8.682;2023-12-20T17:30:26;9.60;71.60
65568;DHT22;52211;50.154;8.682;2023-12-20T17:32:55;9.60;71.60
65568;DHT22;52211;50.154;8.682;2023-12-20T17:35:29;9.60;71.60
65568;DHT22;52211;50.154;8.682;2023-12-20T17:37:56;9.60;71.70
65568;DHT22;52211;50.154;8.682;2023-12-20T17:40:23;9.60;71.60
65568;DHT22;52211;50.154;8.682;2023-12-20T17:42:50;9.70;71.70
65568;DHT22;52211;50.154;8.682;2023-12-20T17:45:20;9.60;71.70
65568;DHT22;52211;50.154;8.682;2023-12-20T17:47:51;9.70;71.70
65568;DHT22;52211;50.154;8.682;2023-12-20T17:50:18;9.60;71.70
65568;DHT22;52211;50.154;8.682;2023-12-20T17:52:46;9.70;71.70
65568;DHT22;52211;50.154;8.682;2023-12-20T17:55:22;9.60;71.60
65568;DHT22;52211;50.154;8.682;2023-12-20T17:57:52;9.60;71.60
65568;DHT22;52211;50.154;8.682;2023-12-20T18:00:21;9.60;71.70
65568;DHT22;52211;50.154;8.682;2023-12-20T18:02:51;9.60;71.60
65568;DHT22;52211;50.154;8.682;2023-12-20T18:05:21;9.70;71.60
65568;DHT22;52211;50.154;8.682;2023-12-20T18:07:53;9.70;71.50
65568;DHT22;52211;50.154;8.682;2023-12-20T18:10:20;9.60;71.50
65568;DHT22;52211;50.154;8.682;2023-12-20T18:12:48;9.60;71.40
65568;DHT22;52211;50.154;8.682;2023-12-20T18:15:17;9.60;71.40
65568;DHT22;52211;50.154;8.682;2023-12-20T18:17:44;9.70;71.50
65568;DHT22;52211;50.154;8.682;2023-12-20T18:20:16;9.60;71.50
65568;DHT22;52211;50.154;8.682;2023-12-20T18:22:44;9.60;71.50
65568;DHT22;52211;50.154;8.682;2023-12-20T18:25:11;9.60;71.50
65568;DHT22;52211;50.154;8.682;2023-12-20T18:27:40;9.60;71.40
65568;DHT22;52211;50.154;8.682;2023-12-20T18:30:10;9.60;71.40
65568;DHT22;52211;50.154;8.682;2023-12-20T18:32:45;9.60;71.50
65568;DHT22;52211;50.154;8.682;2023-12-20T18:35:12;9.60;71.50
65568;DHT22;52211;50.154;8.682;2023-12-20T18:37:40;9.60;71.50
65568;DHT22;52211;50.154;8.682;2023-12-20T18:40:14;9.60;71.60
65568;DHT22;52211;50.154;8.682;2023-12-20T18:42:41;9.60;71.60
65568;DHT22;52211;50.154;8.682;2023-12-20T18:45:13;9.60;71.70
65568;DHT22;52211;50.154;8.682;2023-12-20T18:47:42;9.50;71.50
65568;DHT22;52211;50.154;8.682;2023-12-20T18:50:14;9.50;72.10
65568;DHT22;52211;50.154;8.682;2023-12-20T18:52:46;9.50;71.80
65568;DHT22;52211;50.154;8.682;2023-12-20T18:55:13;9.60;71.80
65568;DHT22;52211;50.154;8.682;2023-12-20T18:57:40;9.60;71.80
65568;DHT22;52211;50.154;8.682;2023-12-20T19:00:10;9.50;71.80
65568;DHT22;52211;50.154;8.682;2023-12-20T19:02:37;9.60;71.80
65568;DHT22;52211;50.154;8.682;2023-12-20T19:05:07;9.50;71.90
65568;DHT22;52211;50.154;8.682;2023-12-20T19:07:36;9.60;71.90
65568;DHT22;52211;50.154;8.682;2023-12-20T19:10:04;9.60;72.00
65568;DHT22;52211;50.154;8.682;2023-12-20T19:12:33;9.60;72.00
65568;DHT22;52211;50.154;8.682;2023-12-20T19:15:05;9.50;72.00
65568;DHT22;52211;50.154;8.682;2023-12-20T19:17:32;9.60;72.10
65568;DHT22;52211;50.154;8.682;2023-12-20T19:20:01;9.60;72.10
65568;DHT22;52211;50.154;8.682;2023-12-20T19:22:28;9.60;72.00
65568;DHT22;52211;50.154;8.682;2023-12-20T19:24:59;9.60;72.00
65568;DHT22;52211;50.154;8.682;2023-12-20T19:27:32;9.60;72.00
65568;DHT22;52211;50.154;8.682;2023-12-20T19:30:00;9.50;72.00
65568;DHT22;52211;50.154;8.682;2023-12-20T19:32:28;9.60;72.10
65568;DHT22;52211;50.154;8.682;2023-12-20T19:34:58;9.60;72.10
65568;DHT22;52211;50.154;8.682;2023-12-20T19:37:28;9.60;72.10
65568;DHT22;52211;50.154;8.682;2023-12-20T19:39:55;9.60;72.10
65568;DHT22;52211;50.154;8.682;2023-12-20T19:42:26;9.70;72.10
65568;DHT22;52211;50.154;8.682;2023-12-20T19:44:55;9.60;72.10
65568;DHT22;52211;50.154;8.682;2023-12-20T19:47:22;9.70;72.10
65568;DHT22;52211;50.154;8.682;2023-12-20T19:49:52;9.60;72.00
65568;DHT22;52211;50.154;8.682;2023-12-20T19:52:23;9.70;72.10
65568;DHT22;52211;50.154;8.682;2023-12-20T19:54:55;9.70;72.70
65568;DHT22;52211;50.154;8.682;2023-12-20T19:57:22;9.60;72.10
65568;DHT22;52211;50.154;8.682;2023-12-20T19:59:49;9.60;72.10
65568;DHT22;52211;50.154;8.682;2023-12-20T20:02:18;9.60;72.10
65568;DHT22;52211;50.154;8.682;2023-12-20T20:04:45;9.60;72.20
65568;DHT22;52211;50.154;8.682;2023-12-20T20:07:13;9.60;72.20
65568;DHT22;52211;50.154;8.682;2023-12-20T20:09:52;9.60;72.20
65568;DHT22;52211;50.154;8.682;2023-12-20T20:12:23;9.50;72.20
65568;DHT22;52211;50.154;8.682;2023-12-20T20:14:52;9.60;72.30
65568;DHT22;52211;50.154;8.682;2023-12-20T20:17:26;9.60;72.30
65568;DHT22;52211;50.154;8.682;2023-12-20T20:19:55;9.60;72.40
65568;DHT22;52211;50.154;8.682;2023-12-20T20:22:26;9.60;72.40
65568;DHT22;52211;50.154;8.682;2023-12-20T20:24:57;9.60;72.50
65568;DHT22;52211;50.154;8.682;2023-12-20T20:27:24;9.50;72.40
65568;DHT22;52211;50.154;8.682;2023-12-20T20:29:51;9.60;72.50
65568;DHT22;52211;50.154;8.682;2023-12-20T20:32:18;9.50;72.50
65568;DHT22;52211;50.154;8.682;2023-12-20T20:34:45;9.50;72.50
65568;DHT22;52211;50.154;8.682;2023-12-20T20:37:17;9.40;72.50
65568;DHT22;52211;50.154;8.682;2023-12-20T20:39:44;9.50;72.60
65568;DHT22;52211;50.154;8.682;2023-12-20T20:42:15;9.50;72.60
65568;DHT22;52211;50.154;8.682;2023-12-20T20:44:42;9.50;72.70
65568;DHT22;52211;50.154;8.682;2023-12-20T20:47:09;9.40;72.70
65568;DHT22;52211;50.154;8.682;2023-12-20T20:49:36;9.40;72.70
65568;DHT22;52211;50.154;8.682;2023-12-20T20:52:03;9.40;72.80
65568;DHT22;52211;50.154;8.682;2023-12-20T20:54:37;9.40;72.80
65568;DHT22;52211;50.154;8.682;2023-12-20T20:57:04;9.40;72.80
65568;DHT22;52211;50.154;8.682;2023-12-20T20:59:33;9.50;72.80
65568;DHT22;52211;50.154;8.682;2023-12-20T21:02:08;9.50;72.90
65568;DHT22;52211;50.154;8.682;2023-12-20T21:04:35;9.50;72.90
65568;DHT22;52211;50.154;8.682;2023-12-20T21:07:02;9.50;72.80
65568;DHT22;52211;50.154;8.682;2023-12-20T21:09:31;9.50;72.90
65568;DHT22;52211;50.154;8.682;2023-12-20T21:12:00;9.50;72.90
65568;DHT22;52211;50.154;8.682;2023-12-20T21:14:29;9.50;72.90
65568;DHT22;52211;50.154;8.682;2023-12-20T21:16:56;9.50;72.90
65568;DHT22;52211;50.154;8.682;2023-12-20T21:19:29;9.50;72.90
65568;DHT22;52211;50.154;8.682;2023-12-20T21:21:58;9.60;72.90
65568;DHT22;52211;50.154;8.682;2023-12-20T21:24:29;9.60;72.90
65568;DHT22;52211;50.154;8.682;2023-12-20T21:26:58;9.60;72.90
65568;DHT22;52211;50.154;8.682;2023-12-20T21:29:29;9.60;72.90
65568;DHT22;52211;50.154;8.682;2023-12-20T21:31:58;9.60;72.90
65568;DHT22;52211;50.154;8.682;2023-12-20T21:34:28;9.70;72.90
65568;DHT22;52211;50.154;8.682;2023-12-20T21:36:57;9.70;72.90
65568;DHT22;52211;50.154;8.682;2023-12-20T21:39:24;10.40;73.20
65568;DHT22;52211;50.154;8.682;2023-12-20T21:41:55;10.50;73.30
65568;DHT22;52211;50.154;8.682;2023-12-20T21:44:22;9.70;72.80
65568;DHT22;52211;50.154;8.682;2023-12-20T21:46:52;9.70;72.80
65568;DHT22;52211;50.154;8.682;2023-12-20T21:49:21;9.80;72.80
65568;DHT22;52211;50.154;8.682;2023-12-20T21:51:53;9.80;72.80
65568;DHT22;52211;50.154;8.682;2023-12-20T21:54:20;9.80;72.70
65568;DHT22;52211;50.154;8.682;2023-12-20T21:56:49;9.80;72.80
65568;DHT22;52211;50.154;8.682;2023-12-20T21:59:18;9.80;72.80
65568;DHT22;52211;50.154;8.682;2023-12-20T22:01:50;9.80;72.70
65568;DHT22;52211;50.154;8.682;2023-12-20T22:04:20;9.80;72.80
65568;DHT22;52211;50.154;8.682;2023-12-20T22:06:49;10.50;73.10
65568;DHT22;52211;50.154;8.682;2023-12-20T22:09:19;9.80;72.70
65568;DHT22;52211;50.154;8.682;2023-12-20T22:11:48;9.80;72.70
65568;DHT22;52211;50.154;8.682;2023-12-20T22:14:21;9.80;72.70
65568;DHT22;52211;50.154;8.682;2023-12-20T22:16:52;9.80;72.70
65568;DHT22;52211;50.154;8.682;2023-12-20T22:19:19;9.90;72.70
65568;DHT22;52211;50.154;8.682;2023-12-20T22:21:48;9.80;72.70
65568;DHT22;52211;50.154;8.682;2023-12-20T22:24:18;9.80;72.70
65568;DHT22;52211;50.154;8.682;2023-12-20T22:26:49;9.80;72.80
65568;DHT22;52211;50.154;8.682;2023-12-20T22:29:16;9.80;72.80
65568;DHT22;52211;50.154;8.682;2023-12-20T22:31:45;9.70;72.70
65568;DHT22;52211;50.154;8.682;2023-12-20T22:34:15;9.70;72.80
65568;DHT22;52211;50.154;8.682;2023-12-20T22:36:47;9.90;72.90
65568;DHT22;52211;50.154;8.682;2023-12-20T22:39:14;9.60;72.80
65568;DHT22;52211;50.154;8.682;2023-12-20T22:41:42;9.60;72.80
65568;DHT22;52211;50.154;8.682;2023-12-20T22:44:10;9.60;72.80
65568;DHT22;52211;50.154;8.682;2023-12-20T22:46:37;9.60;72.90
65568;DHT22;52211;50.154;8.682;2023-12-20T22:49:12;9.60;72.90
65568;DHT22;52211;50.154;8.682;2023-12-20T22:51:41;9.60;73.00
65568;DHT22;52211;50.154;8.682;2023-12-20T22:54:08;9.60;73.10
65568;DHT22;52211;50.154;8.682;2023-12-20T22:56:37;9.50;73.10
65568;DHT22;52211;50.154;8.682;2023-12-20T22:59:06;9.60;73.20
65568;DHT22;52211;50.154;8.682;2023-12-20T23:01:33;9.60;73.20
65568;DHT22;52211;50.154;8.682;2023-12-20T23:04:02;9.60;73.30
65568;DHT22;52211;50.154;8.682;2023-12-20T23:06:32;9.60;73.30
65568;DHT22;52211;50.154;8.682;2023-12-20T23:08:59;9.60;73.30
65568;DHT22;52211;50.154;8.682;2023-12-20T23:11:29;9.50;73.20
65568;DHT22;52211;50.154;8.682;2023-12-20T23:13:56;9.50;73.30
65568;DHT22;52211;50.154;8.682;2023-12-20T23:16:39;9.60;73.30
65568;DHT22;52211;50.154;8.682;2023-12-20T23:19:09;9.80;73.40
65568;DHT22;52211;50.154;8.682;2023-12-20T23:21:44;9.60;73.40
65568;DHT22;52211;50.154;8.682;2023-12-20T23:24:11;9.60;73.40
65568;DHT22;52211;50.154;8.682;2023-12-20T23:26:39;9.60;73.40
65568;DHT22;52211;50.154;8.682;2023-12-20T23:29:07;9.60;73.40
65568;DHT22;52211;50.154;8.682;2023-12-20T23:31:37;9.60;73.40
65568;DHT22;52211;50.154;8.682;2023-12-20T23:34:04;9.50;73.40
65568;DHT22;52211;50.154;8.682;2023-12-20T23:36:31;9.50;73.40
65568;DHT22;52211;50.154;8.682;2023-12-20T23:39:00;9.60;73.50
65568;DHT22;52211;50.154;8.682;2023-12-20T23:41:27;9.50;73.40
65568;DHT22;52211;50.154;8.682;2023-12-20T23:43:55;9.50;73.50
65568;DHT22;52211;50.154;8.682;2023-12-20T23:46:27;9.50;73.50
65568;DHT22;52211;50.154;8.682;2023-12-20T23:48:53;9.60;73.60
65568;DHT22;52211;50.154;8.682;2023-12-20T23:51:20;9.60;73.60
65568;DHT22;52211;50.154;8.682;2023-12-20T23:53:47;9.80;73.80
65568;DHT22;52211;50.154;8.682;2023-12-20T23:56:19;9.60;73.70
65568;DHT22;52211;50.154;8.682;2023-12-20T23:58:57;9.50;73.60
